Alpine, TX

4:10 PM CDT on April 21, 2015 (GMT -0500)
Thomas, Ave. A & N. Cockrell | | Change Station
CLOSE
Current Station
Personal Weather Station
Location: Alpine, TX
Elevation: 4485 ft
Nearby Weather Stations

Elev 4485 ft 30.36 °N, 103.66 °W | Updated 30 seconds ago

Clear
Clear
86.5 °F
Feels Like 83 °F
N
0.2
Wind Variable Wind from WNW
Gusts 2.5 mph

Today
High -- | Low -- °F
--% Chance of Precip.
Yesterday
High -- | Low -- °F
Precip. -- in
7:21 AM 8:25 PM
Waxing Crescent, 12% visible
Pressure 29.98 in
Visibility 10.0 miles
Clouds Clear
Heat Index 83 °F
Dew Point 26 °F
Humidity 11%
Rainfall 0.00 in
Snow Depth Not available.
UV 6.0 out of 12
Pollen 9.00 out of 12
Air Quality Not available.
Flu Activity Local Activity
METAR KE38 212055Z AUTO 20007G14KT 10SM CLR 27/M01 A2998 RMK AO2 T02691006

More Conditions Fewer Conditions

Pressure 29.98 in
Visibility 10.0 miles
Clouds Clear
Heat Index 83 °F
Dew Point 26 °F
Humidity 11%
Rainfall 0.00 in
Snow Depth Not available.
UV 6.0 out of 12
Pollen 9.00 out of 12
Air Quality Not available.
Flu Activity Local Activity
METAR KE38 212055Z AUTO 20007G14KT 10SM CLR 27/M01 A2998 RMK AO2 T02691006

More Conditions Fewer Conditions

10-Day Weather Forecast

Almanac

Astronomy

Apr. 21, 2015 Rise Set
Actual Time
Civil Twilight
Nautical Twilight
Astronomical Twilight
Moon
Length of Visible Light
Length of Day
Tomorrow will be .
, % of the Moon is Illuminated

Today's Extremes

State Highs State Lows

Community

WunderPhotos

Upload Photos

1,815,549 photos uploaded!

WunderBlogs® & News

Nearby

Air Quality

  Air Quality AQ Index Pollutant
Not available.

Snow Depth

Station Depth Elevation

Earthquake Activity

City Distance Mag. Time & Date
Minimum magnitude displayed is 2.5.

Coastal Water Temperatures

Place Temperature

Stations

Nearby Weather Stations

Station Location Temp. Windchill Dew Point Humidity Wind Precip. Elev Updated Type